Time;durP1;ratioP1;P1;durP2;ratioP2;P2;SDS_P1;SDS_P2;PMS_P1;PMS_P2;Temp;Humidity;BMP_temperature;BMP_pressure;BME280_temperature;BME280_humidity;BME280_pressure;Samples;Min_cycle;Max_cycle;Signal;HPM_P1;HPM_P2
2022/04/09 00:00:57;;;;;;;7.83;5.27;;;7.80;99.90;;;;;;5079461;28;20211;-60
2022/04/09 00:03:45;;;;;;;9.30;5.53;;;7.80;99.90;;;;;;5076500;28;20248;-59
2022/04/09 00:06:34;;;;;;;8.83;5.50;;;7.80;99.90;;;;;;5095814;28;20227;-60
2022/04/09 00:09:22;;;;;;;8.50;5.73;;;7.70;99.90;;;;;;5077226;28;20220;-60
2022/04/09 00:12:11;;;;;;;9.93;5.70;;;7.70;99.90;;;;;;5079537;28;20387;-59
2022/04/09 00:15:00;;;;;;;8.77;5.67;;;7.70;99.90;;;;;;5075131;28;20231;-59
2022/04/09 00:17:50;;;;;;;6.87;5.27;;;7.70;99.90;;;;;;5076602;28;20216;-59
2022/04/09 00:20:39;;;;;;;9.03;6.20;;;7.70;99.90;;;;;;5057906;28;20227;-59
2022/04/09 00:23:27;;;;;;;12.70;6.37;;;7.70;99.90;;;;;;5056506;28;20842;-58
2022/04/09 00:26:16;;;;;;;10.57;6.20;;;7.70;99.90;;;;;;5078861;28;20224;-60
2022/04/09 00:29:05;;;;;;;11.47;6.40;;;7.60;99.90;;;;;;5078929;28;20861;-60
2022/04/09 00:31:53;;;;;;;10.37;6.77;;;7.50;99.90;;;;;;5076366;28;20307;-59
2022/04/09 00:34:44;;;;;;;10.13;6.37;;;7.50;99.90;;;;;;5055195;28;20278;-58
2022/04/09 00:37:33;;;;;;;10.80;7.07;;;7.50;99.90;;;;;;5057296;28;20289;-58
2022/04/09 00:40:26;;;;;;;10.40;7.30;;;7.50;99.90;;;;;;5053776;28;20224;-60
2022/04/09 00:43:14;;;;;;;11.43;7.37;;;7.40;99.90;;;;;;5072978;28;20223;-60
2022/04/09 00:46:03;;;;;;;11.73;7.30;;;7.40;99.90;;;;;;5082732;28;20900;-58
2022/04/09 00:48:52;;;;;;;11.13;7.67;;;7.40;99.90;;;;;;5057727;28;20236;-59
2022/04/09 00:51:43;;;;;;;13.47;7.80;;;7.40;99.90;;;;;;5059066;28;20225;-59
2022/04/09 00:54:33;;;;;;;11.47;7.80;;;7.40;99.90;;;;;;5054444;28;20282;-59
2022/04/09 00:57:25;;;;;;;10.63;7.33;;;7.40;99.90;;;;;;5048892;28;20756;-60
2022/04/09 01:00:15;;;;;;;10.70;7.47;;;7.40;99.90;;;;;;5051193;28;20267;-59
2022/04/09 01:03:04;;;;;;;12.33;7.83;;;7.30;99.90;;;;;;5054323;28;20338;-59
2022/04/09 01:05:52;;;;;;;10.40;7.03;;;7.40;99.90;;;;;;5069461;28;20224;-59
2022/04/09 01:08:46;;;;;;;12.00;7.07;;;7.40;99.90;;;;;;5062400;28;20381;-60
2022/04/09 01:11:36;;;;;;;11.30;6.87;;;7.40;99.90;;;;;;5061392;28;20226;-59
2022/04/09 01:14:24;;;;;;;12.67;7.40;;;7.40;99.90;;;;;;5063126;28;20226;-58
2022/04/09 01:17:13;;;;;;;10.83;7.57;;;7.40;99.90;;;;;;5065402;28;20232;-60
2022/04/09 01:20:15;;;;;;;10.17;7.87;;;7.40;99.90;;;;;;5054498;28;20635;-59
2022/04/09 01:23:05;;;;;;;9.97;7.73;;;7.30;99.90;;;;;;5064767;28;20226;-59
2022/04/09 01:25:59;;;;;;;11.57;8.03;;;7.40;99.90;;;;;;5049910;28;20349;-60
2022/04/09 01:28:49;;;;;;;11.13;7.70;;;7.40;99.90;;;;;;5080907;28;20223;-58
2022/04/09 01:31:39;;;;;;;12.43;8.53;;;7.40;99.90;;;;;;5072600;28;20215;-59
2022/04/09 01:34:28;;;;;;;15.40;8.20;;;7.40;99.90;;;;;;5063839;28;20227;-60
2022/04/09 01:37:17;;;;;;;13.20;7.93;;;7.30;99.90;;;;;;5049640;28;20650;-59
2022/04/09 01:40:09;;;;;;;11.13;7.83;;;7.40;99.90;;;;;;5051288;28;20330;-58
2022/04/09 01:42:59;;;;;;;12.60;8.80;;;7.40;99.90;;;;;;5057213;28;20735;-58
2022/04/09 01:45:48;;;;;;;13.07;8.30;;;7.40;99.90;;;;;;5073437;28;20208;-59
2022/04/09 01:48:43;;;;;;;10.77;7.17;;;7.40;99.90;;;;;;5079256;28;20930;-58
2022/04/09 01:51:31;;;;;;;11.63;7.73;;;7.30;99.90;;;;;;5087075;28;20757;-59
2022/04/09 01:54:20;;;;;;;12.20;8.30;;;7.30;99.90;;;;;;5080765;28;20712;-59
2022/04/09 01:57:11;;;;;;;11.97;8.93;;;7.30;99.90;;;;;;5064460;28;20377;-59
2022/04/09 02:00:00;;;;;;;11.33;8.73;;;7.30;99.90;;;;;;5078210;28;20304;-59
2022/04/09 02:02:50;;;;;;;12.47;8.70;;;7.30;99.90;;;;;;5057868;28;20220;-60
2022/04/09 02:05:42;;;;;;;10.40;8.53;;;7.30;99.90;;;;;;5054358;28;20231;-59
2022/04/09 02:08:32;;;;;;;13.20;8.73;;;7.30;99.90;;;;;;5069772;28;20384;-59
2022/04/09 02:11:23;;;;;;;10.07;7.97;;;7.20;99.90;;;;;;5068601;28;20237;-60
2022/04/09 02:14:13;;;;;;;10.07;7.80;;;7.30;99.90;;;;;;5086290;28;20215;-59
2022/04/09 02:17:02;;;;;;;12.63;7.90;;;7.20;99.90;;;;;;5078894;28;20326;-59
2022/04/09 02:19:50;;;;;;;11.57;7.67;;;7.20;99.90;;;;;;5083443;28;20249;-59
2022/04/09 02:22:41;;;;;;;10.67;7.70;;;7.20;99.90;;;;;;5061598;28;20243;-59
2022/04/09 02:25:29;;;;;;;10.67;8.13;;;7.20;99.90;;;;;;5061813;28;20220;-59
2022/04/09 02:28:18;;;;;;;10.27;7.90;;;7.20;99.90;;;;;;5061773;28;20685;-58
2022/04/09 02:31:09;;;;;;;10.07;7.70;;;7.20;99.90;;;;;;5075006;28;20220;-58
2022/04/09 02:34:01;;;;;;;11.07;7.70;;;7.20;99.90;;;;;;5065144;28;20616;-59
2022/04/09 02:36:50;;;;;;;8.70;7.33;;;7.30;99.90;;;;;;5060966;28;20224;-59
2022/04/09 02:39:38;;;;;;;8.83;7.60;;;7.20;99.90;;;;;;5065941;28;20301;-59
2022/04/09 02:42:27;;;;;;;10.93;7.57;;;7.20;99.90;;;;;;5078483;28;21182;-59
2022/04/09 02:45:16;;;;;;;8.67;7.53;;;7.20;99.90;;;;;;5062927;28;20227;-59
2022/04/09 02:48:07;;;;;;;9.77;7.17;;;7.10;99.90;;;;;;5058109;28;20216;-59
2022/04/09 02:50:56;;;;;;;8.53;6.73;;;7.20;99.90;;;;;;5063560;28;20303;-59
2022/04/09 02:53:45;;;;;;;10.43;7.23;;;7.10;99.90;;;;;;5061373;28;20337;-59
2022/04/09 02:56:34;;;;;;;8.10;6.53;;;7.20;99.90;;;;;;5065761;28;20232;-59
2022/04/09 02:59:23;;;;;;;9.83;6.67;;;7.20;99.90;;;;;;5054578;28;20347;-59
2022/04/09 03:02:12;;;;;;;9.33;7.47;;;7.10;99.90;;;;;;5054327;28;20255;-59
2022/04/09 03:05:03;;;;;;;11.10;7.47;;;7.10;99.90;;;;;;5073060;28;20748;-59
2022/04/09 03:07:52;;;;;;;8.97;7.10;;;7.20;99.90;;;;;;5058331;28;20224;-58
2022/04/09 03:10:41;;;;;;;8.00;6.80;;;7.20;99.90;;;;;;5064711;28;20713;-58
2022/04/09 03:13:30;;;;;;;8.53;7.23;;;7.20;99.90;;;;;;5093571;27;20311;-59
2022/04/09 03:16:19;;;;;;;9.80;7.03;;;7.10;99.90;;;;;;5083746;28;20219;-59
2022/04/09 03:19:09;;;;;;;8.80;7.03;;;7.20;99.90;;;;;;5087028;28;20248;-60
2022/04/09 03:21:59;;;;;;;8.87;6.67;;;7.10;99.90;;;;;;5078075;28;20224;-58
2022/04/09 03:24:49;;;;;;;7.90;6.40;;;7.10;99.90;;;;;;5078336;28;20668;-59
2022/04/09 03:27:38;;;;;;;10.00;6.57;;;7.10;99.90;;;;;;5082114;28;20228;-60
2022/04/09 03:30:27;;;;;;;7.90;6.50;;;7.10;99.90;;;;;;5082046;28;20238;-58
2022/04/09 03:33:18;;;;;;;8.43;6.80;;;7.00;99.90;;;;;;5080259;28;20856;-59
2022/04/09 03:36:11;;;;;;;8.47;6.80;;;7.10;99.90;;;;;;5065796;28;20227;-59
2022/04/09 03:39:01;;;;;;;8.87;6.97;;;7.10;99.90;;;;;;5068610;28;20356;-59
2022/04/09 03:41:50;;;;;;;9.10;7.60;;;7.00;99.90;;;;;;5076567;28;20223;-59
2022/04/09 03:44:59;;;;;;;9.73;7.00;;;7.00;99.90;;;;;;5072498;28;20678;-58
2022/04/09 03:47:48;;;;;;;8.73;6.80;;;7.00;99.90;;;;;;5057394;28;20354;-58
2022/04/09 03:50:38;;;;;;;7.50;6.63;;;7.00;99.90;;;;;;5066028;28;20276;-58
2022/04/09 03:53:29;;;;;;;6.90;6.20;;;7.00;99.90;;;;;;5071722;28;20223;-58
2022/04/09 03:56:23;;;;;;;9.90;7.00;;;7.00;99.90;;;;;;5064372;28;20215;-57
2022/04/09 03:59:13;;;;;;;11.47;6.40;;;7.00;99.90;;;;;;5059851;28;20299;-59
2022/04/09 04:02:05;;;;;;;8.30;6.90;;;7.00;99.90;;;;;;5056764;28;20289;-58
2022/04/09 04:05:01;;;;;;;11.97;7.23;;;7.00;99.90;;;;;;5076352;28;20656;-60
2022/04/09 04:07:52;;;;;;;9.80;6.80;;;6.90;99.90;;;;;;5061289;28;20224;-58
2022/04/09 04:10:42;;;;;;;8.70;6.30;;;6.90;99.90;;;;;;5051168;28;20304;-58
2022/04/09 04:13:47;;;;;;;7.73;6.30;;;6.80;99.90;;;;;;5062400;28;20277;-57
2022/04/09 04:16:36;;;;;;;9.37;6.40;;;6.80;99.90;;;;;;5068727;28;20223;-59
2022/04/09 04:19:25;;;;;;;8.20;6.57;;;6.80;99.90;;;;;;5068481;28;20256;-59
2022/04/09 04:22:16;;;;;;;10.53;6.53;;;6.80;99.90;;;;;;5044507;28;20224;-59
2022/04/09 04:25:05;;;;;;;10.17;7.43;;;6.80;99.90;;;;;;5073537;28;20227;-58
2022/04/09 04:27:56;;;;;;;8.50;7.17;;;6.80;99.90;;;;;;5056950;28;20224;-60
2022/04/09 04:30:47;;;;;;;8.17;6.80;;;6.80;99.90;;;;;;5092132;28;20597;-58
2022/04/09 04:33:36;;;;;;;9.40;6.60;;;6.90;99.90;;;;;;5069932;28;20296;-59
2022/04/09 04:36:25;;;;;;;7.63;6.37;;;6.90;99.90;;;;;;5053194;28;20393;-59
2022/04/09 04:39:14;;;;;;;9.53;6.97;;;6.80;99.90;;;;;;5088080;28;20241;-59
2022/04/09 04:42:08;;;;;;;10.20;7.27;;;6.80;99.90;;;;;;5075184;28;20238;-58
2022/04/09 04:44:57;;;;;;;7.53;6.73;;;6.90;99.90;;;;;;5091968;27;20696;-58
2022/04/09 04:47:49;;;;;;;11.10;7.23;;;6.90;99.90;;;;;;5063558;28;20224;-58
2022/04/09 04:50:43;;;;;;;11.10;7.27;;;6.90;99.90;;;;;;5064910;28;20216;-58
2022/04/09 04:53:33;;;;;;;9.23;7.50;;;7.00;99.90;;;;;;5062165;28;20255;-58
2022/04/09 04:56:24;;;;;;;10.73;7.47;;;6.90;99.90;;;;;;5058718;28;20419;-58
2022/04/09 04:59:17;;;;;;;10.30;8.43;;;6.70;99.90;;;;;;5067065;28;20252;-59
2022/04/09 05:02:05;;;;;;;11.93;8.50;;;6.70;99.90;;;;;;5053830;28;20227;-60
2022/04/09 05:04:56;;;;;;;11.13;8.63;;;6.60;99.90;;;;;;5082859;28;20220;-59
2022/04/09 05:07:47;;;;;;;14.77;9.77;;;6.60;99.90;;;;;;5072117;28;20226;-59
2022/04/09 05:10:36;;;;;;;15.90;10.63;;;6.70;99.90;;;;;;5084881;27;20261;-61
2022/04/09 05:13:25;;;;;;;14.57;11.00;;;6.80;99.90;;;;;;5075275;28;20967;-57
2022/04/09 05:16:17;;;;;;;14.03;11.30;;;6.60;99.90;;;;;;5075092;28;20254;-60
2022/04/09 05:19:16;;;;;;;14.87;10.80;;;6.60;99.90;;;;;;5069313;28;20275;-59
2022/04/09 05:22:15;;;;;;;13.30;11.73;;;6.70;99.90;;;;;;5055997;28;20220;-59
2022/04/09 05:25:19;;;;;;;15.90;11.03;;;6.70;99.90;;;;;;5065290;28;20219;-59
2022/04/09 05:28:09;;;;;;;17.60;12.20;;;6.60;99.90;;;;;;5055169;28;20654;-58
2022/04/09 05:31:06;;;;;;;15.80;11.47;;;6.60;99.90;;;;;;5068177;28;20347;-59
2022/04/09 05:33:55;;;;;;;16.83;11.70;;;6.50;99.90;;;;;;5064260;28;20215;-59
2022/04/09 05:36:45;;;;;;;16.73;10.67;;;6.50;99.90;;;;;;5066132;28;20582;-59
2022/04/09 05:39:35;;;;;;;9.80;7.67;;;6.50;99.90;;;;;;5063293;28;20224;-59
2022/04/09 05:42:26;;;;;;;9.00;6.20;;;6.50;99.90;;;;;;5065730;28;20243;-59
2022/04/09 05:45:15;;;;;;;7.93;5.93;;;6.50;99.90;;;;;;5057702;28;20640;-59
2022/04/09 05:48:07;;;;;;;9.87;6.53;;;6.60;99.90;;;;;;5055885;28;20572;-61
2022/04/09 05:51:05;;;;;;;9.03;6.50;;;6.60;99.90;;;;;;5060195;28;20218;-60
2022/04/09 05:53:59;;;;;;;9.10;6.23;;;6.70;99.90;;;;;;5058962;28;20260;-59
2022/04/09 05:56:52;;;;;;;7.97;6.17;;;6.70;99.90;;;;;;5054491;28;20221;-60
2022/04/09 05:59:44;;;;;;;6.83;5.63;;;6.70;99.90;;;;;;5066667;28;20361;-58
2022/04/09 06:02:39;;;;;;;10.00;5.57;;;6.80;99.90;;;;;;5080618;28;20220;-60
2022/04/09 06:05:31;;;;;;;8.70;5.80;;;6.80;99.90;;;;;;5069482;28;20263;-59
2022/04/09 06:08:21;;;;;;;9.17;5.87;;;6.90;99.90;;;;;;5067096;28;20207;-60
2022/04/09 06:11:09;;;;;;;8.00;5.47;;;7.00;99.90;;;;;;5069295;28;20722;-59
2022/04/09 06:14:00;;;;;;;8.20;5.47;;;7.00;99.90;;;;;;5049869;28;20226;-60
2022/04/09 06:16:50;;;;;;;8.80;5.43;;;7.10;99.90;;;;;;5064970;28;20228;-60
2022/04/09 06:19:39;;;;;;;8.60;5.57;;;7.10;99.90;;;;;;5057843;28;20225;-58
2022/04/09 06:22:29;;;;;;;6.73;5.07;;;7.10;99.90;;;;;;5070430;28;20298;-59
2022/04/09 06:25:18;;;;;;;6.57;5.30;;;7.10;99.90;;;;;;5079598;28;20219;-58
2022/04/09 06:28:08;;;;;;;7.80;5.67;;;7.10;99.90;;;;;;5081180;28;20221;-58
2022/04/09 06:31:01;;;;;;;6.53;5.57;;;7.20;99.90;;;;;;5087162;28;21045;-60
2022/04/09 06:33:53;;;;;;;11.90;6.57;;;7.20;99.90;;;;;;5055770;28;20215;-60
2022/04/09 06:36:42;;;;;;;6.10;5.43;;;7.20;99.90;;;;;;5081029;28;20257;-59
2022/04/09 06:39:31;;;;;;;8.20;6.20;;;7.30;99.90;;;;;;5067397;28;20231;-60
2022/04/09 06:42:20;;;;;;;8.77;6.80;;;7.30;99.90;;;;;;5073776;28;20896;-57
2022/04/09 06:45:28;;;;;;;11.40;7.47;;;7.30;99.90;;;;;;5056239;28;20808;-60
2022/04/09 06:48:37;;;;;;;10.87;7.13;;;7.40;99.90;;;;;;5063416;28;20260;-60
2022/04/09 06:51:49;;;;;;;10.97;7.13;;;7.50;99.90;;;;;;5053870;28;20260;-60
2022/04/09 06:55:00;;;;;;;10.57;7.93;;;7.60;99.90;;;;;;5061049;28;20277;-61
2022/04/09 06:57:51;;;;;;;13.40;7.63;;;7.60;99.90;;;;;;5039150;28;20870;-61
2022/04/09 07:00:49;;;;;;;12.13;7.80;;;7.70;99.90;;;;;;5056767;28;20226;-60
2022/04/09 07:03:39;;;;;;;12.13;7.93;;;7.90;99.90;;;;;;5070968;28;20301;-59
2022/04/09 07:06:30;;;;;;;9.67;8.10;;;8.10;99.90;;;;;;5083548;28;20220;-58
2022/04/09 07:09:18;;;;;;;10.03;7.40;;;8.20;99.90;;;;;;5079560;28;20242;-60
2022/04/09 07:12:10;;;;;;;9.37;7.30;;;8.20;99.90;;;;;;5080866;28;20560;-61
2022/04/09 07:14:59;;;;;;;10.63;8.13;;;8.20;99.90;;;;;;5063789;28;20220;-59
2022/04/09 07:17:53;;;;;;;11.00;7.07;;;8.20;99.90;;;;;;5067391;28;20285;-60
2022/04/09 07:20:44;;;;;;;9.73;7.00;;;8.20;99.90;;;;;;5076315;28;20219;-60
2022/04/09 07:23:33;;;;;;;8.07;6.80;;;8.10;99.90;;;;;;5081390;28;20372;-58
2022/04/09 07:26:22;;;;;;;9.40;6.57;;;8.10;99.90;;;;;;5077801;28;20270;-60
2022/04/09 07:29:11;;;;;;;7.43;6.37;;;8.20;99.90;;;;;;5074341;28;20217;-60
2022/04/09 07:31:59;;;;;;;8.17;5.67;;;8.30;99.90;;;;;;5080383;28;20847;-59
2022/04/09 07:34:48;;;;;;;8.70;6.53;;;8.40;99.90;;;;;;5072903;28;21107;-59
2022/04/09 07:37:42;;;;;;;8.77;6.67;;;8.30;99.90;;;;;;5054498;28;20230;-61
2022/04/09 07:40:30;;;;;;;10.20;6.67;;;8.40;99.90;;;;;;5085924;28;20241;-58
2022/04/09 07:43:19;;;;;;;7.83;6.20;;;8.40;99.90;;;;;;5078948;28;20227;-59
2022/04/09 07:46:08;;;;;;;8.73;6.63;;;8.30;99.90;;;;;;5082090;28;20220;-60
2022/04/09 07:48:56;;;;;;;7.07;6.10;;;8.30;99.90;;;;;;5078961;28;20554;-59
2022/04/09 07:51:45;;;;;;;11.03;7.13;;;8.20;99.90;;;;;;5062715;28;20221;-58
2022/04/09 07:54:35;;;;;;;10.77;7.53;;;8.40;99.90;;;;;;5056277;28;20221;-59
2022/04/09 07:57:23;;;;;;;9.93;7.27;;;8.60;99.90;;;;;;5060715;28;20341;-59
2022/04/09 08:00:13;;;;;;;11.10;7.23;;;8.70;99.90;;;;;;5058621;28;20216;-58
2022/04/09 08:03:03;;;;;;;11.37;8.07;;;8.80;99.90;;;;;;5065342;28;20215;-60
2022/04/09 08:05:52;;;;;;;12.03;7.57;;;8.80;99.90;;;;;;5056795;28;20228;-59
2022/04/09 08:08:41;;;;;;;13.53;8.13;;;8.80;99.90;;;;;;5077379;28;20237;-59
2022/04/09 08:11:30;;;;;;;11.37;8.90;;;8.80;99.90;;;;;;5054536;28;20224;-59
2022/04/09 08:14:19;;;;;;;11.87;9.10;;;8.70;99.90;;;;;;5055503;28;20222;-59
2022/04/09 08:17:08;;;;;;;14.37;9.37;;;8.80;99.90;;;;;;5056332;28;20236;-59
2022/04/09 08:19:58;;;;;;;12.70;9.27;;;9.00;99.90;;;;;;5075093;28;20233;-58
2022/04/09 08:22:47;;;;;;;13.83;9.77;;;9.10;99.90;;;;;;5071549;28;20575;-57
2022/04/09 08:25:36;;;;;;;13.43;8.93;;;9.20;99.90;;;;;;5063095;28;20218;-59
2022/04/09 08:28:27;;;;;;;13.10;8.30;;;9.20;99.90;;;;;;5079158;28;20227;-59
2022/04/09 08:31:16;;;;;;;12.93;9.03;;;9.30;99.90;;;;;;5060558;28;20235;-59
2022/04/09 08:34:05;;;;;;;13.60;9.67;;;9.50;99.90;;;;;;5061320;28;20228;-58
2022/04/09 08:36:53;;;;;;;14.20;9.55;;;9.60;99.90;;;;;;5071991;28;20263;-57
2022/04/09 08:39:42;;;;;;;12.95;8.65;;;9.80;99.90;;;;;;5054081;28;20219;-58
2022/04/09 08:42:31;;;;;;;14.80;9.27;;;9.80;99.90;;;;;;5066446;28;20238;-58
2022/04/09 08:45:22;;;;;;;12.93;9.07;;;9.80;99.90;;;;;;5059293;28;20246;-58
2022/04/09 08:48:11;;;;;;;15.68;9.60;;;9.90;99.90;;;;;;5054266;28;20243;-59
2022/04/09 08:51:04;;;;;;;13.95;8.90;;;10.20;99.90;;;;;;5056633;28;20227;-59
2022/04/09 08:54:14;;;;;;;16.15;8.90;;;10.00;99.90;;;;;;5055413;28;20227;-58
2022/04/09 08:57:02;;;;;;;13.93;8.02;;;10.30;99.90;;;;;;5048890;28;20268;-58
2022/04/09 08:59:53;;;;;;;12.73;9.07;;;10.30;99.90;;;;;;5063874;28;20222;-59
2022/04/09 09:02:51;;;;;;;10.80;7.75;;;10.40;99.90;;;;;;5079758;28;20219;-61
2022/04/09 09:05:41;;;;;;;12.85;7.90;;;10.60;99.90;;;;;;5078440;28;20239;-60
2022/04/09 09:08:38;;;;;;;13.48;7.38;;;10.90;99.90;;;;;;5078307;28;20657;-59
2022/04/09 09:11:28;;;;;;;11.57;7.28;;;10.90;99.90;;;;;;5078380;28;20817;-59
2022/04/09 09:14:26;;;;;;;13.82;7.72;;;10.80;99.90;;;;;;5078290;28;20224;-61
2022/04/09 09:17:31;;;;;;;15.75;8.20;;;10.60;99.90;;;;;;5079957;28;20211;-60
2022/04/09 09:20:21;;;;;;;13.20;8.10;;;10.70;99.90;;;;;;5063239;28;20732;-58
2022/04/09 11:53:18;;;;;;;6.13;2.95;;;11.80;85.40;;;;;;5046907;27;21652;-58
2022/04/09 11:56:07;;;;;;;5.50;2.65;;;11.80;90.00;;;;;;5056449;28;20224;-60
2022/04/09 11:58:55;;;;;;;3.75;2.40;;;11.60;90.70;;;;;;5052158;28;20224;-59
2022/04/09 12:01:46;;;;;;;4.85;2.47;;;11.60;88.70;;;;;;5053906;28;20660;-61
2022/04/09 12:04:36;;;;;;;4.90;2.70;;;11.50;90.90;;;;;;5055784;28;20220;-59
2022/04/09 12:07:28;;;;;;;7.85;2.80;;;11.60;90.20;;;;;;5053762;28;20578;-61
2022/04/09 12:10:28;;;;;;;3.45;2.20;;;11.80;84.40;;;;;;5042076;28;20302;-60
2022/04/09 12:13:23;;;;;;;7.00;2.80;;;11.80;86.40;;;;;;5040247;28;20718;-60
2022/04/09 12:16:17;;;;;;;3.75;2.90;;;11.70;86.00;;;;;;5058906;28;20698;-60
2022/04/09 12:19:07;;;;;;;5.28;2.80;;;11.70;86.70;;;;;;5040582;28;20594;-61
2022/04/09 12:21:56;;;;;;;3.60;2.80;;;11.60;81.80;;;;;;5056583;28;20251;-61
2022/04/09 12:24:52;;;;;;;3.63;2.63;;;11.50;83.80;;;;;;5056911;28;20850;-60
2022/04/09 12:27:47;;;;;;;4.35;2.85;;;11.50;82.40;;;;;;5054030;28;20242;-59
2022/04/09 12:30:45;;;;;;;4.05;2.90;;;11.60;82.70;;;;;;5054522;28;20262;-60
2022/04/09 12:33:33;;;;;;;5.22;2.97;;;11.40;83.20;;;;;;5051896;28;20262;-60
2022/04/09 12:36:22;;;;;;;5.53;2.75;;;11.60;85.50;;;;;;5037526;28;20251;-61
2022/04/09 12:39:27;;;;;;;4.88;3.22;;;11.70;79.90;;;;;;5057052;28;20300;-61
2022/04/09 12:42:16;;;;;;;4.70;3.10;;;11.70;80.20;;;;;;5056087;28;20353;-60
2022/04/09 12:45:15;;;;;;;6.55;3.25;;;11.80;82.10;;;;;;5057533;28;20225;-60
2022/04/09 12:48:06;;;;;;;5.65;3.15;;;11.60;80.30;;;;;;5053272;28;20223;-60
2022/04/09 12:50:54;;;;;;;9.90;3.47;;;11.40;79.00;;;;;;5040344;28;20232;-60
2022/04/09 12:53:44;;;;;;;5.50;2.97;;;11.50;80.40;;;;;;5051619;28;20252;-59
2022/04/09 12:56:36;;;;;;;4.22;2.85;;;11.40;79.10;;;;;;5038692;28;20231;-59
2022/04/09 12:59:25;;;;;;;5.75;3.10;;;11.50;79.40;;;;;;5043462;28;20232;-61
2022/04/09 13:02:15;;;;;;;5.68;2.83;;;11.60;77.80;;;;;;5043120;28;20217;-59
2022/04/09 13:05:05;;;;;;;4.22;2.70;;;11.50;77.80;;;;;;5043714;28;20232;-59
2022/04/09 13:07:54;;;;;;;7.05;2.78;;;11.60;78.50;;;;;;5038149;28;20243;-60
2022/04/09 13:10:43;;;;;;;5.00;2.60;;;11.70;78.80;;;;;;5041200;28;20794;-60
2022/04/09 13:13:32;;;;;;;5.53;2.80;;;11.70;79.70;;;;;;5041769;28;20232;-60
2022/04/09 13:16:20;;;;;;;8.10;2.85;;;11.70;80.40;;;;;;5027094;28;20224;-58
2022/04/09 13:19:10;;;;;;;6.00;2.80;;;11.70;78.50;;;;;;5039685;28;20698;-59
2022/04/09 13:21:59;;;;;;;5.57;2.70;;;11.60;77.90;;;;;;5035496;28;20226;-61
2022/04/09 13:24:47;;;;;;;4.88;3.03;;;11.70;77.30;;;;;;5038125;28;20233;-61
2022/04/09 13:27:37;;;;;;;4.57;2.58;;;11.70;77.50;;;;;;5040340;28;20233;-59
2022/04/09 16:22:15;;;;;;;6.05;2.50;;;9.80;77.40;;;;;;5064888;27;20604;-59
2022/04/09 16:25:05;;;;;;;7.38;2.50;;;9.80;78.10;;;;;;5052809;28;20287;-59
2022/04/09 16:27:53;;;;;;;4.17;2.30;;;9.70;76.80;;;;;;5060257;28;20310;-60
2022/04/09 16:30:42;;;;;;;5.22;2.60;;;9.70;76.40;;;;;;5075813;28;20219;-59
2022/04/09 16:33:30;;;;;;;7.90;2.50;;;9.70;77.30;;;;;;5075852;28;20306;-58
2022/04/09 16:36:20;;;;;;;3.67;2.30;;;9.70;75.80;;;;;;5094521;28;20311;-59
2022/04/09 16:39:11;;;;;;;6.47;2.78;;;9.70;76.70;;;;;;5080003;28;20637;-59
2022/04/09 16:41:59;;;;;;;5.65;2.40;;;9.70;77.90;;;;;;5084804;28;20542;-60
2022/04/09 16:44:48;;;;;;;6.63;2.50;;;9.60;76.60;;;;;;5067655;28;20227;-61
2022/04/09 16:47:37;;;;;;;6.20;2.73;;;9.60;78.60;;;;;;5080591;28;20225;-59
2022/04/09 16:50:25;;;;;;;5.20;2.80;;;9.60;77.00;;;;;;5059535;28;20219;-59
2022/04/09 16:53:14;;;;;;;5.97;3.22;;;9.50;77.50;;;;;;5081043;28;20227;-59
2022/04/09 16:56:04;;;;;;;5.88;3.10;;;9.50;77.90;;;;;;5066986;28;20312;-59
2022/04/09 16:58:53;;;;;;;4.95;2.90;;;9.50;78.20;;;;;;5079385;28;20219;-59
2022/04/09 17:01:42;;;;;;;4.60;2.90;;;9.40;79.40;;;;;;5068230;28;20226;-59
2022/04/09 17:04:31;;;;;;;8.45;3.13;;;9.50;79.30;;;;;;5081955;28;20226;-59
2022/04/09 17:07:19;;;;;;;7.60;3.20;;;9.40;79.00;;;;;;5083877;28;20622;-59
2022/04/09 17:10:09;;;;;;;7.67;3.27;;;9.40;79.80;;;;;;5083546;28;20245;-60
2022/04/09 17:12:58;;;;;;;6.67;3.00;;;9.30;80.90;;;;;;5083832;28;20576;-60
2022/04/09 17:15:47;;;;;;;4.70;2.80;;;9.30;80.20;;;;;;5081360;28;20248;-60
2022/04/09 17:18:37;;;;;;;8.10;3.00;;;9.20;81.00;;;;;;5079902;28;20963;-58
2022/04/09 17:21:26;;;;;;;6.80;3.07;;;9.20;79.90;;;;;;5082708;28;20233;-59
2022/04/09 17:24:14;;;;;;;6.80;2.80;;;9.20;79.40;;;;;;5079067;28;20561;-58
2022/04/09 17:27:03;;;;;;;6.37;2.90;;;9.10;77.50;;;;;;5081146;28;20246;-59
2022/04/09 17:29:53;;;;;;;7.63;3.30;;;9.10;79.30;;;;;;5085877;28;20218;-58
2022/04/09 17:32:42;;;;;;;7.05;2.80;;;9.00;79.40;;;;;;5073371;28;20223;-59
2022/04/09 17:35:30;;;;;;;5.57;2.70;;;9.00;79.40;;;;;;5050553;28;20220;-59
2022/04/09 17:38:19;;;;;;;5.13;2.80;;;9.00;80.20;;;;;;5049192;28;20231;-59
2022/04/09 17:41:08;;;;;;;11.30;3.20;;;9.00;80.30;;;;;;5070922;28;20633;-59
2022/04/09 17:43:57;;;;;;;7.27;3.50;;;9.00;80.50;;;;;;5066303;28;20234;-59
2022/04/09 17:46:47;;;;;;;8.63;3.63;;;8.90;80.20;;;;;;5049952;28;20357;-58
2022/04/09 17:49:36;;;;;;;7.40;3.23;;;8.90;80.20;;;;;;5052238;28;20313;-60
2022/04/09 17:52:24;;;;;;;9.63;3.83;;;8.80;81.70;;;;;;5068828;28;20234;-60
2022/04/09 17:55:13;;;;;;;6.47;3.27;;;8.80;82.00;;;;;;5066763;28;20252;-59
2022/04/09 17:58:04;;;;;;;6.57;3.60;;;8.80;83.20;;;;;;5076514;28;20303;-60
2022/04/09 18:00:53;;;;;;;6.80;3.70;;;8.70;83.00;;;;;;5070007;28;20220;-60
2022/04/09 18:03:43;;;;;;;7.30;3.90;;;8.70;83.70;;;;;;5061781;28;20228;-59
2022/04/09 18:06:32;;;;;;;7.63;4.10;;;8.60;83.80;;;;;;5064779;28;20228;-57
2022/04/09 18:09:22;;;;;;;8.47;4.10;;;8.60;84.00;;;;;;5055598;28;20249;-59
2022/04/09 18:12:11;;;;;;;6.57;3.93;;;8.60;83.90;;;;;;5061540;28;20238;-59
2022/04/09 18:15:00;;;;;;;8.67;4.50;;;8.60;84.50;;;;;;5060363;28;20294;-59
2022/04/09 18:17:48;;;;;;;8.13;4.27;;;8.60;85.50;;;;;;5058611;28;20244;-59
2022/04/09 18:20:38;;;;;;;9.30;4.70;;;8.60;85.50;;;;;;5061882;28;20290;-60
2022/04/09 18:23:27;;;;;;;8.20;4.70;;;8.50;85.60;;;;;;5057634;28;20251;-59
2022/04/09 18:26:16;;;;;;;9.53;4.40;;;8.50;86.00;;;;;;5056880;28;20307;-59
2022/04/09 18:29:05;;;;;;;11.63;5.00;;;8.50;84.50;;;;;;5055661;28;20775;-59
2022/04/09 18:31:53;;;;;;;9.23;5.30;;;8.50;84.30;;;;;;5061352;28;20586;-58
2022/04/09 18:34:46;;;;;;;12.27;5.30;;;8.40;87.20;;;;;;5066005;28;20306;-60
2022/04/09 18:37:36;;;;;;;11.67;6.00;;;8.40;87.90;;;;;;5056900;28;20285;-58
2022/04/09 18:40:25;;;;;;;14.63;7.20;;;8.40;86.50;;;;;;5052041;28;20216;-60
2022/04/09 18:43:13;;;;;;;12.13;6.47;;;8.40;85.50;;;;;;5080334;28;20226;-59
2022/04/09 18:46:02;;;;;;;13.27;6.80;;;8.30;87.80;;;;;;5078485;28;20229;-59
2022/04/09 18:48:51;;;;;;;14.53;7.57;;;8.30;88.00;;;;;;5050231;28;20222;-59
2022/04/09 18:51:39;;;;;;;19.00;8.33;;;8.30;88.30;;;;;;5053326;28;20251;-57
2022/04/09 18:54:29;;;;;;;14.50;8.00;;;8.30;86.60;;;;;;5053354;28;20220;-58
2022/04/09 18:57:18;;;;;;;16.43;8.27;;;8.20;86.80;;;;;;5047656;28;20220;-60
2022/04/09 19:00:08;;;;;;;20.03;7.93;;;8.30;87.00;;;;;;5064162;28;20243;-59
2022/04/09 19:02:59;;;;;;;16.50;8.40;;;8.20;87.80;;;;;;5066121;28;20231;-58
2022/04/09 19:05:48;;;;;;;18.53;9.37;;;8.10;89.10;;;;;;5065847;28;20221;-58
2022/04/09 19:08:38;;;;;;;14.37;8.20;;;8.10;89.80;;;;;;5061982;28;20773;-59
2022/04/09 19:11:28;;;;;;;14.80;8.40;;;8.00;90.00;;;;;;5076810;28;20744;-59
2022/04/09 19:14:17;;;;;;;18.53;8.40;;;8.10;89.90;;;;;;5069407;28;20211;-59
2022/04/09 19:17:06;;;;;;;15.33;9.07;;;8.10;90.60;;;;;;5054135;28;20573;-59
2022/04/09 19:19:59;;;;;;;15.20;8.80;;;8.10;90.10;;;;;;5069024;28;20215;-61
2022/04/09 19:22:48;;;;;;;18.90;9.27;;;8.00;90.30;;;;;;5063654;28;20220;-59
2022/04/09 19:25:37;;;;;;;16.23;9.00;;;7.90;91.20;;;;;;5061471;28;20248;-59
2022/04/09 19:28:27;;;;;;;15.57;9.73;;;7.90;91.40;;;;;;5080217;28;20231;-59
2022/04/09 19:31:17;;;;;;;18.63;8.80;;;7.90;91.10;;;;;;5065401;28;20632;-60
2022/04/09 19:34:06;;;;;;;18.63;8.97;;;7.90;90.50;;;;;;5060798;28;20274;-58
2022/04/09 19:36:55;;;;;;;19.47;9.10;;;7.80;91.70;;;;;;5061391;28;20223;-58
2022/04/09 19:39:45;;;;;;;14.23;8.30;;;7.70;91.80;;;;;;5067225;28;20224;-59
2022/04/09 19:42:34;;;;;;;19.10;9.00;;;7.60;92.20;;;;;;5050351;28;20220;-59
2022/04/09 19:45:25;;;;;;;19.30;8.97;;;7.60;92.30;;;;;;5046130;28;20309;-59
2022/04/09 19:48:14;;;;;;;16.67;9.17;;;7.70;91.70;;;;;;5061313;28;20458;-59
2022/04/09 19:51:02;;;;;;;20.13;9.37;;;7.60;91.50;;;;;;5039811;28;20571;-60
2022/04/09 19:53:51;;;;;;;17.90;9.73;;;7.50;92.10;;;;;;5044335;28;20226;-60
2022/04/09 19:56:40;;;;;;;16.83;9.37;;;7.60;91.20;;;;;;5056090;28;20218;-60
2022/04/09 19:59:29;;;;;;;21.77;9.87;;;7.60;91.10;;;;;;5061814;28;20220;-58
2022/04/09 20:02:23;;;;;;;17.20;9.93;;;7.70;90.50;;;;;;5058493;28;20910;-58
2022/04/09 20:05:12;;;;;;;22.33;10.10;;;7.60;90.40;;;;;;5065048;28;20277;-59
2022/04/09 20:08:01;;;;;;;21.17;9.87;;;7.60;90.60;;;;;;5049740;28;20235;-57
2022/04/09 20:10:49;;;;;;;20.70;9.90;;;7.60;90.40;;;;;;5060546;28;20231;-58
2022/04/09 20:13:38;;;;;;;19.93;10.53;;;7.50;90.40;;;;;;5059964;28;20238;-58